Time;durP1;ratioP1;P1;durP2;ratioP2;P2;SDS_P1;SDS_P2;PMS_P1;PMS_P2;Temp;Humidity;BMP_temperature;BMP_pressure;BME280_temperature;BME280_humidity;BME280_pressure;Samples;Min_cycle;Max_cycle;Signal;HPM_P1;HPM_P2
2021/04/28 00:01:09;;;;;;;12.77;10.20;;;;;;;;;;5075961;28;20024;-77
2021/04/28 00:03:35;;;;;;;13.95;10.98;;;;;;;;;;5075817;28;20059;-77
2021/04/28 00:06:01;;;;;;;11.50;10.13;;;;;;;;;;5075782;28;20036;-77
2021/04/28 00:08:27;;;;;;;13.73;11.27;;;;;;;;;;5075695;28;20021;-77
2021/04/28 00:10:53;;;;;;;12.93;10.85;;;;;;;;;;5075626;28;20395;-77
2021/04/28 00:13:20;;;;;;;13.10;11.73;;;;;;;;;;5075568;28;20040;-77
2021/04/28 00:15:47;;;;;;;18.05;14.55;;;;;;;;;;5075579;28;20452;-77
2021/04/28 00:18:14;;;;;;;12.90;10.57;;;;;;;;;;5057596;28;20051;-77
2021/04/28 00:20:41;;;;;;;12.73;9.98;;;;;;;;;;5075332;28;20031;-77
2021/04/28 00:23:08;;;;;;;13.15;10.18;;;;;;;;;;5075469;28;20024;-77
2021/04/28 00:25:35;;;;;;;13.13;10.38;;;;;;;;;;5075280;28;20086;-76
2021/04/28 00:28:01;;;;;;;12.23;10.60;;;;;;;;;;5075450;28;20028;-77
2021/04/28 00:30:28;;;;;;;12.75;11.40;;;;;;;;;;5074601;28;20107;-77
2021/04/28 00:32:54;;;;;;;13.57;11.32;;;;;;;;;;5075347;28;20025;-77
2021/04/28 00:35:23;;;;;;;13.90;10.82;;;;;;;;;;5074933;28;20059;-77
2021/04/28 00:37:49;;;;;;;14.15;11.25;;;;;;;;;;5075163;28;20582;-77
2021/04/28 00:40:20;;;;;;;14.27;11.50;;;;;;;;;;5075411;28;20063;-77
2021/04/28 00:42:47;;;;;;;12.40;10.70;;;;;;;;;;5075145;28;20418;-77
2021/04/28 00:45:14;;;;;;;13.65;11.10;;;;;;;;;;5075173;28;20017;-77
2021/04/28 00:47:40;;;;;;;12.10;10.48;;;;;;;;;;5075009;28;20086;-77
2021/04/28 00:50:08;;;;;;;12.05;9.93;;;;;;;;;;5075046;28;20530;-77
2021/04/28 00:52:34;;;;;;;11.63;10.38;;;;;;;;;;5075007;28;20180;-77
2021/04/28 00:55:02;;;;;;;11.45;9.73;;;;;;;;;;5075023;28;20039;-77
2021/04/28 00:57:28;;;;;;;12.60;9.98;;;;;;;;;;5074681;28;20029;-77
2021/04/28 00:59:54;;;;;;;12.50;9.90;;;;;;;;;;5074754;28;20032;-77
2021/04/28 01:02:20;;;;;;;12.90;10.20;;;;;;;;;;5074908;28;20031;-77
2021/04/28 01:04:46;;;;;;;11.27;10.10;;;;;;;;;;5074652;28;20025;-77
2021/04/28 01:07:14;;;;;;;10.52;9.15;;;;;;;;;;5074666;28;20033;-77
2021/04/28 01:09:41;;;;;;;10.95;9.77;;;;;;;;;;5074790;28;20463;-77
2021/04/28 01:12:08;;;;;;;10.73;8.95;;;;;;;;;;5074598;28;20029;-77
2021/04/28 01:14:35;;;;;;;9.75;8.23;;;;;;;;;;5074442;28;20028;-76
2021/04/28 01:17:01;;;;;;;9.52;8.40;;;;;;;;;;5074245;28;20041;-77
2021/04/28 01:19:28;;;;;;;10.30;9.10;;;;;;;;;;5074323;28;20039;-77
2021/04/28 01:21:55;;;;;;;10.63;9.07;;;;;;;;;;5074311;28;20028;-77
2021/04/28 01:24:21;;;;;;;9.35;8.35;;;;;;;;;;5074268;28;20395;-77
2021/04/28 01:26:51;;;;;;;9.57;8.63;;;;;;;;;;5074259;28;20086;-77
2021/04/28 01:29:19;;;;;;;11.82;8.57;;;;;;;;;;5074074;28;20025;-77
2021/04/28 01:31:45;;;;;;;9.80;8.27;;;;;;;;;;5074147;28;20024;-77
2021/04/28 01:34:11;;;;;;;9.75;8.55;;;;;;;;;;5074026;28;20024;-77
2021/04/28 01:36:39;;;;;;;9.25;8.13;;;;;;;;;;5074230;28;20072;-77
2021/04/28 01:39:06;;;;;;;8.32;7.50;;;;;;;;;;5074155;28;20028;-77
2021/04/28 01:41:36;;;;;;;9.80;7.85;;;;;;;;;;5073762;28;20025;-77
2021/04/28 01:44:02;;;;;;;10.63;7.00;;;;;;;;;;5073369;28;20047;-77
2021/04/28 01:46:29;;;;;;;8.90;7.68;;;;;;;;;;5055928;28;20241;-77
2021/04/28 01:48:55;;;;;;;9.88;7.40;;;;;;;;;;5073809;28;20020;-77
2021/04/28 01:51:21;;;;;;;7.93;7.00;;;;;;;;;;5073806;28;20472;-77
2021/04/28 01:53:47;;;;;;;10.10;7.53;;;;;;;;;;5073743;28;20028;-77
2021/04/28 01:56:14;;;;;;;8.88;7.03;;;;;;;;;;5073556;28;20036;-77
2021/04/28 01:58:42;;;;;;;9.82;7.93;;;;;;;;;;5073811;28;20081;-77
2021/04/28 02:01:09;;;;;;;10.48;7.85;;;;;;;;;;5073425;28;20048;-77
2021/04/28 02:03:35;;;;;;;8.50;7.35;;;;;;;;;;5073670;28;20028;-77
2021/04/28 02:06:01;;;;;;;9.80;7.43;;;;;;;;;;5073759;28;20024;-77
2021/04/28 02:08:28;;;;;;;8.63;7.45;;;;;;;;;;5073836;28;20434;-77
2021/04/28 02:10:55;;;;;;;8.55;6.88;;;;;;;;;;5073649;28;20024;-77
2021/04/28 02:13:22;;;;;;;10.25;8.65;;;;;;;;;;5055185;28;20029;-77
2021/04/28 02:15:48;;;;;;;12.32;9.52;;;;;;;;;;5073767;28;20371;-77
2021/04/28 02:18:15;;;;;;;10.90;9.57;;;;;;;;;;5073358;28;20494;-77
2021/04/28 02:20:41;;;;;;;11.70;9.85;;;;;;;;;;5073336;28;20025;-76
2021/04/28 02:23:08;;;;;;;13.18;10.18;;;;;;;;;;5073433;28;20028;-76
2021/04/28 02:25:34;;;;;;;12.50;9.15;;;;;;;;;;5073438;28;20063;-76
2021/04/28 02:28:01;;;;;;;9.77;8.68;;;;;;;;;;5073508;28;20521;-77
2021/04/28 02:30:28;;;;;;;10.68;9.57;;;;;;;;;;5073317;28;20150;-76
2021/04/28 02:32:55;;;;;;;13.23;9.48;;;;;;;;;;5073399;28;20029;-77
2021/04/28 02:35:22;;;;;;;10.60;9.50;;;;;;;;;;5073658;28;20128;-77
2021/04/28 02:37:49;;;;;;;12.20;9.55;;;;;;;;;;5073232;28;20480;-77
2021/04/28 02:40:16;;;;;;;13.48;10.38;;;;;;;;;;5073144;28;20487;-77
2021/04/28 02:42:44;;;;;;;13.68;10.60;;;;;;;;;;5073447;28;20051;-77
2021/04/28 02:45:12;;;;;;;16.67;10.02;;;;;;;;;;5073601;28;20506;-77
2021/04/28 02:47:39;;;;;;;10.90;8.77;;;;;;;;;;5073334;28;20029;-76
2021/04/28 02:50:06;;;;;;;12.05;9.45;;;;;;;;;;5073038;28;20029;-76
2021/04/28 02:52:33;;;;;;;12.30;9.25;;;;;;;;;;5073257;28;20028;-77
2021/04/28 02:54:59;;;;;;;11.32;9.27;;;;;;;;;;5058162;28;20388;-77
2021/04/28 02:57:25;;;;;;;10.98;9.35;;;;;;;;;;5076952;28;20036;-77
2021/04/28 02:59:52;;;;;;;12.43;11.13;;;;;;;;;;5077126;28;20052;-77
2021/04/28 03:02:18;;;;;;;12.30;9.43;;;;;;;;;;5077026;28;20024;-77
2021/04/28 03:04:45;;;;;;;12.25;9.88;;;;;;;;;;5077062;28;20024;-77
2021/04/28 03:07:12;;;;;;;11.13;9.52;;;;;;;;;;5076892;28;20035;-77
2021/04/28 03:09:42;;;;;;;13.05;10.07;;;;;;;;;;5076892;28;20049;-77
2021/04/28 03:12:09;;;;;;;10.15;9.15;;;;;;;;;;5076748;28;20031;-77
2021/04/28 03:14:35;;;;;;;12.70;9.75;;;;;;;;;;5076893;28;20037;-77
2021/04/28 03:17:02;;;;;;;12.95;9.40;;;;;;;;;;5076573;28;20055;-77
2021/04/28 03:19:28;;;;;;;10.32;9.10;;;;;;;;;;5076769;28;20044;-77
2021/04/28 03:21:54;;;;;;;10.63;9.13;;;;;;;;;;5058679;28;20064;-77
2021/04/28 03:24:21;;;;;;;11.02;8.23;;;;;;;;;;5076531;28;20037;-77
2021/04/28 03:26:52;;;;;;;10.23;9.15;;;;;;;;;;5076634;28;20028;-77
2021/04/28 03:29:18;;;;;;;13.73;9.70;;;;;;;;;;5076495;28;20025;-77
2021/04/28 03:31:44;;;;;;;10.98;8.82;;;;;;;;;;5076652;28;20107;-77
2021/04/28 03:34:10;;;;;;;11.73;8.73;;;;;;;;;;5076286;28;20067;-77
2021/04/28 03:36:36;;;;;;;10.95;8.63;;;;;;;;;;5076312;28;20491;-77
2021/04/28 03:39:03;;;;;;;10.65;7.97;;;;;;;;;;5076357;28;20074;-77
2021/04/28 03:41:29;;;;;;;12.13;8.35;;;;;;;;;;5076487;28;20057;-77
2021/04/28 03:43:55;;;;;;;11.35;8.65;;;;;;;;;;5076515;28;20020;-77
2021/04/28 03:46:22;;;;;;;9.13;7.90;;;;;;;;;;5076505;28;20047;-77
2021/04/28 03:48:48;;;;;;;7.93;6.68;;;;;;;;;;5076311;28;20032;-77
2021/04/28 03:51:15;;;;;;;8.05;6.25;;;;;;;;;;5076015;28;20024;-76
2021/04/28 03:53:41;;;;;;;8.43;7.05;;;;;;;;;;5076097;28;20028;-76
2021/04/28 03:56:07;;;;;;;11.40;7.53;;;;;;;;;;5076027;28;20039;-77
2021/04/28 03:58:33;;;;;;;11.35;7.00;;;;;;;;;;5057918;28;20134;-77
2021/04/28 04:00:59;;;;;;;7.75;6.50;;;;;;;;;;5076187;28;20109;-77
2021/04/28 04:03:26;;;;;;;10.18;6.07;;;;;;;;;;5057822;28;20032;-76
2021/04/28 04:05:52;;;;;;;9.10;7.55;;;;;;;;;;5074720;28;20491;-76
2021/04/28 04:08:18;;;;;;;10.05;8.73;;;;;;;;;;5075908;28;20039;-77
2021/04/28 04:10:44;;;;;;;14.95;12.60;;;;;;;;;;5075937;28;20060;-76
2021/04/28 04:13:10;;;;;;;16.23;11.40;;;;;;;;;;5075631;28;20042;-76
2021/04/28 04:15:37;;;;;;;21.40;16.73;;;;;;;;;;5075810;28;20459;-77
2021/04/28 04:18:03;;;;;;;75.65;55.38;;;;;;;;;;5075444;28;20036;-77
2021/04/28 04:20:29;;;;;;;15.98;13.00;;;;;;;;;;5075737;28;20029;-77
2021/04/28 04:22:55;;;;;;;35.17;25.75;;;;;;;;;;5075451;28;20107;-77
2021/04/28 04:25:21;;;;;;;17.42;12.57;;;;;;;;;;5075802;28;20024;-77
2021/04/28 04:27:47;;;;;;;25.27;20.35;;;;;;;;;;5075874;28;20078;-78
2021/04/28 04:30:14;;;;;;;64.20;42.33;;;;;;;;;;5076021;28;20033;-78
2021/04/28 04:32:40;;;;;;;22.40;16.98;;;;;;;;;;5075995;28;20033;-77
2021/04/28 04:35:06;;;;;;;11.88;10.38;;;;;;;;;;5075641;28;20048;-78
2021/04/28 04:37:32;;;;;;;15.13;9.60;;;;;;;;;;5075647;28;20039;-77
2021/04/28 04:39:59;;;;;;;11.88;8.52;;;;;;;;;;5075693;28;20124;-75
2021/04/28 04:42:25;;;;;;;11.07;9.65;;;;;;;;;;5074980;28;20031;-76
2021/04/28 04:44:51;;;;;;;11.48;10.35;;;;;;;;;;5075194;28;20020;-76
2021/04/28 04:47:17;;;;;;;13.43;9.35;;;;;;;;;;5057145;28;20028;-76
2021/04/28 04:49:44;;;;;;;12.73;9.60;;;;;;;;;;5075413;28;20490;-75
2021/04/28 04:52:11;;;;;;;13.75;9.35;;;;;;;;;;5057349;28;20033;-76
2021/04/28 04:54:37;;;;;;;14.48;10.45;;;;;;;;;;5056954;28;20032;-76
2021/04/28 04:57:04;;;;;;;12.40;9.07;;;;;;;;;;5074765;28;20067;-75
2021/04/28 04:59:30;;;;;;;15.35;10.40;;;;;;;;;;5074857;28;20082;-76
2021/04/28 05:01:56;;;;;;;18.35;10.50;;;;;;;;;;5074882;28;20036;-76
2021/04/28 05:04:22;;;;;;;10.90;7.68;;;;;;;;;;5074660;28;20093;-76
2021/04/28 05:06:49;;;;;;;11.10;8.40;;;;;;;;;;5074869;28;20029;-77
2021/04/28 05:09:15;;;;;;;13.13;9.15;;;;;;;;;;5074446;28;20107;-76
2021/04/28 05:11:41;;;;;;;15.35;9.98;;;;;;;;;;5074709;28;20032;-76
2021/04/28 05:14:07;;;;;;;15.57;10.15;;;;;;;;;;5074299;28;20025;-76
2021/04/28 05:16:33;;;;;;;11.50;10.27;;;;;;;;;;5074022;28;20025;-77
2021/04/28 05:19:00;;;;;;;14.23;9.77;;;;;;;;;;5056093;28;20033;-77
2021/04/28 05:21:26;;;;;;;10.40;8.60;;;;;;;;;;5074460;28;20082;-77
2021/04/28 05:23:52;;;;;;;10.80;9.70;;;;;;;;;;5072076;28;20074;-78
2021/04/28 05:26:18;;;;;;;11.85;8.63;;;;;;;;;;5072794;28;20032;-78
2021/04/28 05:28:44;;;;;;;11.73;10.48;;;;;;;;;;5073127;28;20057;-79
2021/04/28 05:31:10;;;;;;;11.05;9.32;;;;;;;;;;5073346;28;20495;-78
2021/04/28 05:33:36;;;;;;;12.63;9.88;;;;;;;;;;5073030;28;20099;-78
2021/04/28 05:36:06;;;;;;;10.20;8.50;;;;;;;;;;5072522;28;20048;-79
2021/04/28 05:38:32;;;;;;;8.93;7.03;;;;;;;;;;5073191;28;20479;-78
2021/04/28 05:40:58;;;;;;;10.65;8.00;;;;;;;;;;5071690;28;20028;-78
2021/04/28 05:43:24;;;;;;;12.10;8.27;;;;;;;;;;5072258;28;20044;-79
2021/04/28 05:45:50;;;;;;;12.07;8.45;;;;;;;;;;5071529;28;20111;-76
2021/04/28 05:48:17;;;;;;;10.65;8.68;;;;;;;;;;5071491;28;20024;-78
2021/04/28 05:50:44;;;;;;;13.90;8.15;;;;;;;;;;5071066;28;20020;-78
2021/04/28 05:53:10;;;;;;;12.50;8.48;;;;;;;;;;5071519;28;20040;-77
2021/04/28 05:55:37;;;;;;;11.80;8.65;;;;;;;;;;5071043;28;20028;-77
2021/04/28 05:58:04;;;;;;;31.83;25.17;;;;;;;;;;5071208;28;20040;-78
2021/04/28 06:00:30;;;;;;;16.42;12.07;;;;;;;;;;5071213;28;20040;-77
2021/04/28 06:02:56;;;;;;;9.88;7.63;;;;;;;;;;5070644;28;20426;-78
2021/04/28 06:05:22;;;;;;;12.68;8.40;;;;;;;;;;5071399;28;20070;-77
2021/04/28 06:07:48;;;;;;;12.05;9.60;;;;;;;;;;5071129;28;20039;-81
2021/04/28 06:10:15;;;;;;;12.52;8.65;;;;;;;;;;5071064;28;20052;-75
2021/04/28 06:12:41;;;;;;;34.78;25.02;;;;;;;;;;5071321;28;20494;-76
2021/04/28 06:15:08;;;;;;;15.02;11.70;;;;;;;;;;5071041;28;20522;-76
2021/04/28 06:17:34;;;;;;;9.93;7.53;;;;;;;;;;5071350;28;20043;-77
2021/04/28 06:20:01;;;;;;;9.30;7.22;;;;;;;;;;5071048;28;20047;-76
2021/04/28 06:22:27;;;;;;;10.35;7.72;;;;;;;;;;5071062;28;20102;-76
2021/04/28 06:24:53;;;;;;;13.43;8.32;;;;;;;;;;5070700;28;20052;-77
2021/04/28 06:27:19;;;;;;;13.25;8.85;;;;;;;;;;5071026;28;20085;-77
2021/04/28 06:29:45;;;;;;;11.90;8.98;;;;;;;;;;5070706;28;20028;-77
2021/04/28 06:32:11;;;;;;;13.55;9.15;;;;;;;;;;5070809;28;20029;-75
2021/04/28 06:34:38;;;;;;;8.85;6.97;;;;;;;;;;5070768;28;20060;-78
2021/04/28 06:37:04;;;;;;;7.97;6.45;;;;;;;;;;5070605;28;20040;-78
2021/04/28 06:39:30;;;;;;;8.98;6.10;;;;;;;;;;5070742;28;20103;-77
2021/04/28 06:41:56;;;;;;;10.52;6.60;;;;;;;;;;5070724;28;20035;-78
2021/04/28 06:44:22;;;;;;;10.30;5.68;;;;;;;;;;5070719;28;20024;-77
2021/04/28 06:46:48;;;;;;;10.70;5.93;;;;;;;;;;5070818;28;20028;-78
2021/04/28 06:49:14;;;;;;;8.45;5.47;;;;;;;;;;5070555;28;20730;-76
2021/04/28 06:51:40;;;;;;;9.45;5.65;;;;;;;;;;5071038;28;20483;-77
2021/04/28 06:54:07;;;;;;;11.07;5.32;;;;;;;;;;5070678;28;20028;-76
2021/04/28 06:56:33;;;;;;;7.72;5.20;;;;;;;;;;5070530;28;20526;-77
2021/04/28 06:58:59;;;;;;;8.25;6.00;;;;;;;;;;5070770;28;20059;-77
2021/04/28 07:01:25;;;;;;;9.50;6.13;;;;;;;;;;5070835;28;20028;-76
2021/04/28 07:03:52;;;;;;;9.68;6.13;;;;;;;;;;5071178;28;20020;-76
2021/04/28 07:06:18;;;;;;;8.80;5.97;;;;;;;;;;5070303;28;20036;-77
2021/04/28 07:08:46;;;;;;;6.93;4.80;;;;;;;;;;5070494;28;20028;-77
2021/04/28 07:11:12;;;;;;;6.97;5.10;;;;;;;;;;5070177;28;20100;-78
2021/04/28 07:13:38;;;;;;;8.75;5.43;;;;;;;;;;5070615;28;20025;-78
2021/04/28 07:16:04;;;;;;;6.22;5.57;;;;;;;;;;5069979;28;20488;-76
2021/04/28 07:18:30;;;;;;;7.78;5.00;;;;;;;;;;5070068;28;20327;-77
2021/04/28 07:20:57;;;;;;;8.50;5.45;;;;;;;;;;5070341;28;20029;-78
2021/04/28 07:23:23;;;;;;;8.48;6.25;;;;;;;;;;5069659;28;20680;-77
2021/04/28 07:25:49;;;;;;;8.68;5.88;;;;;;;;;;5069902;28;20391;-77
2021/04/28 07:28:15;;;;;;;9.23;6.15;;;;;;;;;;5070102;28;20024;-80
2021/04/28 07:30:41;;;;;;;7.60;6.47;;;;;;;;;;5051676;28;20043;-78
2021/04/28 07:33:07;;;;;;;7.43;5.80;;;;;;;;;;5069996;28;20418;-77
2021/04/28 07:35:34;;;;;;;9.50;5.35;;;;;;;;;;5069913;28;20040;-79
2021/04/28 07:38:00;;;;;;;7.35;6.20;;;;;;;;;;5069778;28;20044;-79
2021/04/28 07:40:26;;;;;;;7.75;5.75;;;;;;;;;;5071296;28;20025;-77
2021/04/28 07:42:52;;;;;;;7.75;5.97;;;;;;;;;;5073710;28;20029;-77
2021/04/28 07:45:19;;;;;;;10.57;6.47;;;;;;;;;;5073355;28;20024;-80
2021/04/28 07:47:45;;;;;;;7.80;6.45;;;;;;;;;;5073544;28;20071;-76
2021/04/28 07:50:12;;;;;;;10.88;6.18;;;;;;;;;;5055376;28;20024;-78
2021/04/28 07:52:38;;;;;;;8.85;6.50;;;;;;;;;;5073097;28;20024;-78
2021/04/28 07:55:04;;;;;;;8.00;5.78;;;;;;;;;;5073462;28;20395;-78
2021/04/28 07:57:31;;;;;;;10.40;5.47;;;;;;;;;;5072747;28;20403;-77
2021/04/28 07:59:57;;;;;;;7.20;5.20;;;;;;;;;;5072810;28;20483;-79
2021/04/28 08:02:23;;;;;;;5.30;4.65;;;;;;;;;;5054597;28;20032;-79
2021/04/28 08:04:49;;;;;;;9.15;4.72;;;;;;;;;;5073107;28;20028;-78
2021/04/28 08:07:16;;;;;;;5.47;4.57;;;;;;;;;;5073155;28;20392;-76
2021/04/28 08:09:42;;;;;;;7.90;4.38;;;;;;;;;;5055173;28;20093;-77
2021/04/28 08:12:09;;;;;;;7.03;4.40;;;;;;;;;;5054375;28;20024;-79
2021/04/28 08:14:35;;;;;;;13.00;7.93;;;;;;;;;;5072528;28;20477;-77
2021/04/28 08:17:01;;;;;;;9.23;5.82;;;;;;;;;;5072640;28;20123;-78
2021/04/28 08:19:27;;;;;;;14.00;5.38;;;;;;;;;;5073157;28;20028;-78
2021/04/28 08:21:57;;;;;;;9.00;4.63;;;;;;;;;;5073115;28;20032;-77
2021/04/28 08:24:23;;;;;;;5.05;4.05;;;;;;;;;;5072878;28;20379;-78
2021/04/28 08:26:50;;;;;;;6.50;3.90;;;;;;;;;;5072542;28;20095;-72
2021/04/28 08:29:16;;;;;;;8.73;4.20;;;;;;;;;;5073089;28;20099;-76
2021/04/28 08:31:42;;;;;;;10.65;6.45;;;;;;;;;;5072630;28;20036;-77
2021/04/28 08:34:08;;;;;;;3.92;3.33;;;;;;;;;;5072943;28;20028;-77
2021/04/28 08:36:35;;;;;;;7.28;3.55;;;;;;;;;;5072949;28;20060;-77
2021/04/28 08:39:02;;;;;;;6.22;3.38;;;;;;;;;;5072856;28;20111;-76
2021/04/28 08:41:28;;;;;;;4.35;3.55;;;;;;;;;;5065983;28;20028;-79
2021/04/28 08:43:55;;;;;;;4.28;2.92;;;;;;;;;;5092959;28;20028;-76
2021/04/28 08:46:21;;;;;;;5.43;3.92;;;;;;;;;;5092959;28;20028;-78
2021/04/28 08:48:47;;;;;;;5.88;4.20;;;;;;;;;;5092548;28;20023;-77
2021/04/28 08:51:16;;;;;;;6.00;3.10;;;;;;;;;;5088755;28;22179;-78
2021/04/28 08:53:43;;;;;;;7.18;2.90;;;;;;;;;;5071861;28;20872;-79
2021/04/28 08:56:09;;;;;;;5.63;3.13;;;;;;;;;;5072412;28;20499;-79
2021/04/28 08:58:36;;;;;;;5.18;3.17;;;;;;;;;;5072374;28;20036;-79
2021/04/28 09:01:03;;;;;;;3.80;3.00;;;;;;;;;;5072517;28;20099;-79
2021/04/28 09:03:48;;;;;;;7.65;3.63;;;;;;;;;;5072015;28;20699;-81
2021/04/28 09:06:32;;;;;;;8.50;3.50;;;;;;;;;;5072432;28;20141;-76
2021/04/28 09:09:18;;;;;;;4.32;2.90;;;;;;;;;;5072398;28;20067;-78
2021/04/28 09:11:46;;;;;;;3.97;3.30;;;;;;;;;;5071527;28;20082;-79
2021/04/28 09:14:19;;;;;;;6.65;3.88;;;;;;;;;;5072229;28;20032;-80
2021/04/28 09:17:06;;;;;;;5.20;3.15;;;;;;;;;;5071947;28;20033;-78
2021/04/28 09:22:23;;;;;;;4.10;3.45;;;;;;;;;;5071687;28;20059;-81
2021/04/28 09:24:50;;;;;;;4.75;3.42;;;;;;;;;;5053411;28;20028;-78
2021/04/28 09:27:36;;;;;;;10.35;3.63;;;;;;;;;;5053574;28;20391;-77
2021/04/28 09:30:06;;;;;;;9.05;3.72;;;;;;;;;;5053402;28;20021;-79
2021/04/28 09:32:34;;;;;;;7.70;3.30;;;;;;;;;;5053394;28;20036;-80
2021/04/28 09:35:18;;;;;;;6.07;3.20;;;;;;;;;;5070959;28;20577;-79
2021/04/28 09:37:58;;;;;;;22.13;4.68;;;;;;;;;;5068441;28;20395;-77
2021/04/28 09:40:43;;;;;;;7.93;3.00;;;;;;;;;;5068256;28;20410;-78
2021/04/28 09:43:09;;;;;;;;;;;;;;;;;;5069616;28;20020;-79
2021/04/28 09:46:05;;;;;;;6.80;3.40;;;;;;;;;;5070893;28;19958;-81
2021/04/28 09:48:31;;;;;;;5.53;3.85;;;;;;;;;;5058296;28;20044;-79
2021/04/28 09:51:18;;;;;;;6.18;3.45;;;;;;;;;;5070649;28;20456;-77
2021/04/28 09:53:45;;;;;;;5.53;3.25;;;;;;;;;;5050048;28;20020;-76
2021/04/28 09:56:29;;;;;;;5.45;3.17;;;;;;;;;;5071001;28;20108;-79
2021/04/28 09:58:57;;;;;;;5.18;2.75;;;;;;;;;;5069462;28;20032;-75
2021/04/28 10:01:33;;;;;;;6.25;3.15;;;;;;;;;;5052907;28;20031;-76
2021/04/28 10:04:27;;;;;;;3.95;2.70;;;;;;;;;;5068759;28;20057;-78
2021/04/28 10:06:57;;;;;;;3.87;2.73;;;;;;;;;;5051013;28;20081;-79
2021/04/28 10:09:34;;;;;;;13.50;3.88;;;;;;;;;;5050861;28;20032;-79
2021/04/28 10:12:09;;;;;;;5.97;4.13;;;;;;;;;;5063031;28;20534;-79
2021/04/28 10:14:36;;;;;;;4.47;2.83;;;;;;;;;;5071189;28;20050;-79
2021/04/28 10:17:03;;;;;;;8.20;4.00;;;;;;;;;;5071286;28;20072;-80
2021/04/28 10:19:30;;;;;;;4.72;3.10;;;;;;;;;;5071635;28;20094;-79
2021/04/28 10:22:02;;;;;;;4.95;3.35;;;;;;;;;;5070781;28;20024;-78
2021/04/28 10:24:29;;;;;;;4.78;3.03;;;;;;;;;;5071126;28;20024;-80
2021/04/28 10:26:55;;;;;;;4.15;2.95;;;;;;;;;;5070648;28;20025;-80
2021/04/28 10:29:21;;;;;;;8.77;2.78;;;;;;;;;;5070919;28;20039;-79
2021/04/28 10:31:48;;;;;;;4.95;2.90;;;;;;;;;;5070692;28;20021;-79
2021/04/28 10:34:16;;;;;;;5.50;3.28;;;;;;;;;;5070589;28;20036;-80
2021/04/28 10:36:43;;;;;;;5.03;2.67;;;;;;;;;;5069972;28;20071;-79
2021/04/28 10:39:10;;;;;;;3.95;2.90;;;;;;;;;;5070752;28;20025;-79
2021/04/28 10:41:36;;;;;;;5.15;3.28;;;;;;;;;;5070507;28;20028;-78
2021/04/28 10:44:02;;;;;;;7.15;2.92;;;;;;;;;;5070569;28;20099;-78
2021/04/28 10:46:28;;;;;;;3.80;3.10;;;;;;;;;;5070661;28;20040;-79
2021/04/28 10:48:54;;;;;;;5.53;3.28;;;;;;;;;;5069576;28;20024;-79
2021/04/28 10:51:37;;;;;;;5.50;3.63;;;;;;;;;;5069836;28;20379;-77
2021/04/28 10:54:22;;;;;;;6.80;3.03;;;;;;;;;;5070372;28;20020;-79
2021/04/28 10:57:06;;;;;;;4.25;3.13;;;;;;;;;;5070454;28;20031;-79
2021/04/28 10:59:34;;;;;;;6.57;4.18;;;;;;;;;;5070410;28;20487;-77
2021/04/28 11:02:19;;;;;;;7.88;4.05;;;;;;;;;;5070827;28;20029;-82
2021/04/28 11:04:45;;;;;;;4.32;2.80;;;;;;;;;;5070588;28;20039;-80
2021/04/28 11:07:14;;;;;;;7.28;4.88;;;;;;;;;;5070134;28;20494;-80
2021/04/28 11:09:40;;;;;;;9.07;6.18;;;;;;;;;;5070284;28;20033;-80
2021/04/28 11:12:07;;;;;;;6.43;4.03;;;;;;;;;;5070149;28;20052;-79
2021/04/28 11:14:34;;;;;;;11.32;3.75;;;;;;;;;;5053150;28;20395;-79
2021/04/28 11:17:03;;;;;;;5.47;3.67;;;;;;;;;;5073976;28;20029;-79
2021/04/28 11:19:36;;;;;;;4.90;3.53;;;;;;;;;;5074211;28;20067;-80
2021/04/28 11:22:21;;;;;;;11.60;4.00;;;;;;;;;;5074175;28;20032;-80
2021/04/28 11:24:59;;;;;;;5.32;2.72;;;;;;;;;;5073928;28;20056;-80
2021/04/28 11:27:55;;;;;;;4.65;2.75;;;;;;;;;;5073641;28;20455;-78
2021/04/28 11:30:34;;;;;;;6.30;3.42;;;;;;;;;;5045181;28;20045;-78
2021/04/28 11:33:06;;;;;;;5.55;3.05;;;;;;;;;;5054411;28;20025;-82
2021/04/28 11:35:32;;;;;;;4.97;2.97;;;;;;;;;;5053822;28;20576;-78
2021/04/28 11:38:09;;;;;;;6.43;3.78;;;;;;;;;;5053791;28;20053;-80
2021/04/28 11:40:54;;;;;;;3.97;3.45;;;;;;;;;;5039095;28;20491;-83
2021/04/28 11:43:24;;;;;;;3.13;2.78;;;;;;;;;;5073105;28;20411;-81
2021/04/28 11:45:54;;;;;;;6.82;2.97;;;;;;;;;;5072941;28;20067;-81
2021/04/28 11:48:22;;;;;;;4.53;3.47;;;;;;;;;;5073435;28;20060;-81
2021/04/28 11:50:52;;;;;;;5.45;3.42;;;;;;;;;;5073833;28;20028;-85
2021/04/28 11:53:18;;;;;;;6.25;3.33;;;;;;;;;;5073445;28;20032;-77
2021/04/28 11:55:44;;;;;;;6.18;3.53;;;;;;;;;;5073167;28;20086;-83
2021/04/28 11:58:22;;;;;;;6.03;3.65;;;;;;;;;;5072522;28;20036;-79
2021/04/28 12:00:48;;;;;;;5.68;2.88;;;;;;;;;;5059337;28;20028;-76
2021/04/28 12:03:14;;;;;;;4.35;2.70;;;;;;;;;;5073439;28;20029;-80
2021/04/28 12:05:41;;;;;;;9.48;3.30;;;;;;;;;;5055547;28;20040;-79
2021/04/28 12:08:08;;;;;;;5.03;3.15;;;;;;;;;;5073640;28;20029;-82
2021/04/28 12:10:34;;;;;;;4.75;2.97;;;;;;;;;;5055213;28;20698;-79
2021/04/28 12:13:01;;;;;;;5.90;2.92;;;;;;;;;;5073431;28;20024;-78
2021/04/28 12:15:27;;;;;;;7.65;3.30;;;;;;;;;;5073292;28;20039;-77
2021/04/28 12:17:54;;;;;;;5.70;3.10;;;;;;;;;;5073156;28;20036;-78
2021/04/28 12:20:20;;;;;;;6.50;3.88;;;;;;;;;;5072598;28;20037;-83
2021/04/28 12:22:47;;;;;;;11.30;3.45;;;;;;;;;;5054855;28;20767;-78
2021/04/28 12:25:14;;;;;;;5.90;3.38;;;;;;;;;;5073172;28;20034;-77
2021/04/28 12:27:41;;;;;;;6.72;2.92;;;;;;;;;;5071844;28;20081;-77
2021/04/28 12:30:11;;;;;;;14.75;3.97;;;;;;;;;;5073148;28;20035;-80
2021/04/28 12:32:38;;;;;;;4.90;2.90;;;;;;;;;;5072865;28;20037;-85
2021/04/28 12:35:07;;;;;;;5.93;3.35;;;;;;;;;;5073161;28;20047;-80
2021/04/28 12:37:34;;;;;;;6.05;3.83;;;;;;;;;;5072366;28;20045;-75
2021/04/28 12:40:01;;;;;;;4.85;3.53;;;;;;;;;;5072056;28;20430;-77
2021/04/28 12:42:31;;;;;;;6.60;3.85;;;;;;;;;;5071157;28;20032;-79
2021/04/28 12:44:58;;;;;;;9.45;3.97;;;;;;;;;;5072806;28;20074;-78
2021/04/28 12:47:29;;;;;;;6.55;3.28;;;;;;;;;;5072489;28;20055;-80
2021/04/28 12:50:01;;;;;;;6.85;3.40;;;;;;;;;;5073087;28;20032;-79
2021/04/28 12:52:31;;;;;;;9.02;5.28;;;;;;;;;;5073807;28;20039;-79
2021/04/28 12:54:57;;;;;;;11.43;8.27;;;;;;;;;;5073503;28;20078;-81
2021/04/28 12:57:25;;;;;;;8.82;3.83;;;;;;;;;;5073552;28;20040;-82
2021/04/28 13:00:08;;;;;;;10.85;4.35;;;;;;;;;;5073900;28;20028;-81
2021/04/28 13:02:34;;;;;;;6.00;4.03;;;;;;;;;;5073308;28;20055;-77
2021/04/28 13:05:00;;;;;;;8.63;4.07;;;;;;;;;;5074604;28;20507;-78
2021/04/28 13:07:26;;;;;;;13.00;4.35;;;;;;;;;;5074313;28;20025;-79
2021/04/28 13:09:52;;;;;;;10.02;4.22;;;;;;;;;;5072427;28;20024;-78
2021/04/28 13:12:37;;;;;;;7.63;4.68;;;;;;;;;;5054567;28;20085;-79
2021/04/28 13:15:06;;;;;;;8.50;5.13;;;;;;;;;;5056152;28;20025;-76
2021/04/28 13:17:51;;;;;;;7.72;4.90;;;;;;;;;;5054040;28;20037;-75
2021/04/28 13:20:18;;;;;;;6.65;3.90;;;;;;;;;;5056902;28;20132;-76
2021/04/28 13:22:44;;;;;;;6.85;3.75;;;;;;;;;;5072875;28;20031;-77
2021/04/28 13:25:10;;;;;;;13.55;4.30;;;;;;;;;;5073706;28;20507;-76
2021/04/28 13:27:36;;;;;;;7.20;3.47;;;;;;;;;;5074403;28;20016;-76
2021/04/28 13:30:09;;;;;;;13.45;3.40;;;;;;;;;;5073656;28;20020;-76
2021/04/28 13:32:42;;;;;;;9.07;3.65;;;;;;;;;;5073800;28;20037;-75
2021/04/28 13:35:11;;;;;;;6.88;4.38;;;;;;;;;;5073749;28;20127;-75
2021/04/28 13:37:37;;;;;;;7.00;3.80;;;;;;;;;;5073484;28;20070;-77
2021/04/28 13:40:27;;;;;;;8.88;4.53;;;;;;;;;;5074203;28;20032;-77
2021/04/28 13:42:54;;;;;;;10.52;6.80;;;;;;;;;;5073833;28;20028;-78
2021/04/28 13:45:20;;;;;;;12.80;8.10;;;;;;;;;;5074023;28;20425;-78
2021/04/28 13:47:46;;;;;;;6.85;4.63;;;;;;;;;;5073868;28;20530;-78
2021/04/28 13:50:13;;;;;;;7.93;5.47;;;;;;;;;;5073898;28;20025;-77
2021/04/28 13:52:39;;;;;;;7.88;4.53;;;;;;;;;;5073823;28;20432;-79
2021/04/28 13:55:06;;;;;;;7.28;5.50;;;;;;;;;;5074039;28;20383;-78
2021/04/28 13:57:33;;;;;;;7.93;5.13;;;;;;;;;;5073602;28;20107;-77
2021/04/28 13:59:59;;;;;;;10.98;8.25;;;;;;;;;;5073501;28;20033;-77
2021/04/28 14:02:25;;;;;;;10.05;6.00;;;;;;;;;;5073443;28;20025;-77
2021/04/28 14:04:54;;;;;;;9.43;5.90;;;;;;;;;;5073647;28;20364;-77
2021/04/28 14:07:21;;;;;;;9.70;5.60;;;;;;;;;;5073595;28;20024;-78
2021/04/28 14:09:48;;;;;;;7.85;5.47;;;;;;;;;;5073618;28;20100;-77
2021/04/28 14:12:14;;;;;;;10.82;6.35;;;;;;;;;;5073720;28;20032;-77
2021/04/28 14:14:40;;;;;;;8.82;5.88;;;;;;;;;;5055614;28;20388;-77
2021/04/28 14:17:06;;;;;;;16.45;8.05;;;;;;;;;;5073609;28;20032;-77
2021/04/28 14:19:32;;;;;;;13.57;8.32;;;;;;;;;;5073687;28;20037;-77
2021/04/28 14:21:59;;;;;;;10.85;7.13;;;;;;;;;;5070532;28;20029;-77
2021/04/28 14:24:26;;;;;;;6.97;5.13;;;;;;;;;;5071789;28;20063;-76
2021/04/28 14:26:52;;;;;;;8.75;5.40;;;;;;;;;;5072311;28;20108;-76
2021/04/28 14:29:18;;;;;;;14.27;6.35;;;;;;;;;;5072301;28;20021;-77
2021/04/28 14:31:45;;;;;;;6.80;5.93;;;;;;;;;;5072565;28;20036;-77
2021/04/28 14:34:11;;;;;;;9.20;4.95;;;;;;;;;;5072204;28;20031;-77
2021/04/28 14:36:40;;;;;;;7.15;4.85;;;;;;;;;;5072271;28;20506;-76
2021/04/28 14:39:06;;;;;;;11.38;6.88;;;;;;;;;;5072151;28;20121;-77
2021/04/28 14:41:32;;;;;;;9.70;6.28;;;;;;;;;;5072471;28;20100;-77
2021/04/28 14:43:59;;;;;;;8.98;6.18;;;;;;;;;;5071781;28;20036;-77